Time,TemperatureF,DewpointF,PressureIn,WindDirection,WindDirectionDegrees,WindSpeedMPH,WindSpeedGustMPH,Humidity,HourlyPrecipIn,Conditions,Clouds,dailyrainin,SoftwareType,DateUTC
2013-11-18 00:02:00,56.0,30.1,29.92,West,271,3.5,3.5,37,0.00,RA,,0.00,WeatherDisplay:10.37,2013-11-18 06:02:00,
2013-11-18 00:07:00,55.9,29.3,29.92,West,271,0.0,0.0,36,0.00,RA,,0.00,WeatherDisplay:10.37,2013-11-18 06:07:00,
2013-11-18 00:12:00,55.9,29.3,29.92,West,271,0.0,0.0,36,0.00,CLR,,0.00,WeatherDisplay:10.37,2013-11-18 06:12:00,
2013-11-18 00:17:00,55.7,29.1,29.92,West,271,0.0,0.0,36,0.00,CLR,,0.00,WeatherDisplay:10.37,2013-11-18 06:17:00,
2013-11-18 00:22:00,55.5,29.0,29.92,West,272,0.0,0.0,36,0.00,CLR,,0.00,WeatherDisplay:10.37,2013-11-18 06:22:00,
2013-11-18 00:27:00,55.5,29.0,29.92,West,271,0.0,0.0,36,0.00,CLR,,0.00,WeatherDisplay:10.37,2013-11-18 06:27:00,
2013-11-18 00:32:00,55.5,29.0,29.93,West,271,0.0,0.0,36,0.00,CLR,,0.00,WeatherDisplay:10.37,2013-11-18 06:32:00,
2013-11-18 00:37:00,55.4,28.9,29.93,West,269,0.0,0.0,36,0.00,CLR,,0.00,WeatherDisplay:10.37,2013-11-18 06:37:00,
2013-11-18 00:42:00,55.1,29.3,29.93,West,269,0.0,0.0,37,0.00,CLR,,0.00,WeatherDisplay:10.37,2013-11-18 06:42:00,
2013-11-18 00:47:00,54.9,29.1,29.93,West,266,2.3,2.3,37,0.00,CLR,,0.00,WeatherDisplay:10.37,2013-11-18 06:47:00,
2013-11-18 00:52:00,54.6,28.8,29.94,WNW,289,2.3,2.3,37,0.00,CLR,,0.00,WeatherDisplay:10.37,2013-11-18 06:52:00,
2013-11-18 00:57:00,54.6,28.8,29.94,WNW,289,0.0,0.0,37,0.00,CLR,,0.00,WeatherDisplay:10.37,2013-11-18 06:57:00,
2013-11-18 01:02:00,54.6,28.8,29.94,WNW,289,0.0,0.0,37,0.00,CLR,,0.00,WeatherDisplay:10.37,2013-11-18 07:02:00,
2013-11-18 01:07:00,54.5,28.7,29.94,WNW,289,0.0,0.0,37,0.00,CLR,,0.00,WeatherDisplay:10.37,2013-11-18 07:07:00,
2013-11-18 01:12:00,54.4,28.6,29.94,NW,306,0.0,0.0,37,0.00,CLR,,0.00,WeatherDisplay:10.37,2013-11-18 07:12:00,
2013-11-18 01:17:00,54.5,28.7,29.94,NW,305,0.0,0.0,37,0.00,CLR,,0.00,WeatherDisplay:10.37,2013-11-18 07:17:00,
2013-11-18 01:22:00,54.6,28.8,29.95,NW,305,0.0,0.0,37,0.00,CLR,,0.00,WeatherDisplay:10.37,2013-11-18 07:22:00,
2013-11-18 01:27:00,54.7,28.9,29.95,NW,306,1.1,0.0,37,0.00,CLR,,0.00,WeatherDisplay:10.37,2013-11-18 07:27:00,
2013-11-18 01:32:00,54.8,28.3,29.95,NW,321,0.0,0.0,36,0.00,CLR,,0.00,WeatherDisplay:10.37,2013-11-18 07:32:00,
2013-11-18 01:37:00,54.9,28.4,29.96,NW,317,2.3,0.0,36,0.00,CLR,,0.00,WeatherDisplay:10.37,2013-11-18 07:37:00,
2013-11-18 01:42:00,54.9,28.4,29.96,NW,312,1.1,0.0,36,0.00,CLR,,0.00,WeatherDisplay:10.37,2013-11-18 07:42:00,
2013-11-18 01:47:00,54.9,28.4,29.96,WNW,294,0.0,0.0,36,0.00,CLR,,0.00,WeatherDisplay:10.37,2013-11-18 07:47:00,
2013-11-18 01:52:00,54.8,28.3,29.96,WNW,295,0.0,0.0,36,0.00,CLR,,0.00,WeatherDisplay:10.37,2013-11-18 07:52:00,
2013-11-18 01:57:00,54.7,28.2,29.96,NW,304,0.0,0.0,36,0.00,CLR,,0.00,WeatherDisplay:10.37,2013-11-18 07:57:00,
2013-11-18 02:02:00,54.7,28.2,29.97,NW,304,0.0,0.0,36,0.00,CLR,,0.00,WeatherDisplay:10.37,2013-11-18 08:02:00,
2013-11-18 02:07:00,54.6,28.2,29.97,NW,304,0.0,0.0,36,0.00,CLR,,0.00,WeatherDisplay:10.37,2013-11-18 08:07:00,
2013-11-18 02:12:00,54.5,28.7,29.97,NW,304,0.0,0.0,37,0.00,CLR,,0.00,WeatherDisplay:10.37,2013-11-18 08:12:00,
2013-11-18 02:17:00,54.4,28.6,29.97,NW,304,0.0,0.0,37,0.00,CLR,,0.00,WeatherDisplay:10.37,2013-11-18 08:17:00,
2013-11-18 02:22:00,54.3,28.6,29.97,WNW,302,0.0,0.0,37,0.00,CLR,,0.00,WeatherDisplay:10.37,2013-11-18 08:22:00,
2013-11-18 02:27:00,54.2,29.1,29.97,WNW,300,0.0,0.0,38,0.00,CLR,,0.00,WeatherDisplay:10.37,2013-11-18 08:27:00,
2013-11-18 02:32:00,54.2,29.1,29.97,WNW,300,0.0,0.0,38,0.00,CLR,,0.00,WeatherDisplay:10.37,2013-11-18 08:32:00,
2013-11-18 02:37:00,54.1,29.0,29.97,NW,306,1.1,1.1,38,0.00,CLR,,0.00,WeatherDisplay:10.37,2013-11-18 08:37:00,
2013-11-18 02:42:00,54.0,28.9,29.98,NW,317,0.0,0.0,38,0.00,CLR,,0.00,WeatherDisplay:10.37,2013-11-18 08:42:00,
2013-11-18 02:47:00,53.9,29.5,29.98,NW,317,0.0,0.0,39,0.00,CLR,,0.00,WeatherDisplay:10.37,2013-11-18 08:47:00,
2013-11-18 02:52:00,53.6,29.8,29.98,NW,317,0.0,0.0,40,0.00,CLR,,0.00,WeatherDisplay:10.37,2013-11-18 08:52:00,
2013-11-18 02:57:00,53.4,30.3,29.98,NW,316,3.5,3.5,41,0.00,CLR,,0.00,WeatherDisplay:10.37,2013-11-18 08:57:00,
2013-11-18 03:02:00,53.2,30.7,29.99,NW,317,2.3,2.3,42,0.00,CLR,,0.00,WeatherDisplay:10.37,2013-11-18 09:02:00,
2013-11-18 03:07:00,52.7,32.5,29.99,NW,322,0.0,0.0,46,0.00,CLR,,0.00,WeatherDisplay:10.37,2013-11-18 09:07:00,
2013-11-18 03:12:00,52.0,33.4,29.99,NW,322,0.0,0.0,49,0.00,CLR,,0.00,WeatherDisplay:10.37,2013-11-18 09:12:00,
2013-11-18 03:17:00,51.3,32.3,29.99,NW,322,0.0,0.0,48,0.00,CLR,,0.00,WeatherDisplay:10.37,2013-11-18 09:17:00,
2013-11-18 03:22:00,50.8,30.7,29.99,NW,322,0.0,0.0,46,0.00,CLR,,0.00,WeatherDisplay:10.37,2013-11-18 09:22:00,
2013-11-18 03:27:00,50.8,31.3,29.99,NW,322,0.0,0.0,47,0.00,CLR,,0.00,WeatherDisplay:10.37,2013-11-18 09:27:00,
2013-11-18 03:32:00,50.9,31.4,29.99,NW,322,0.0,0.0,47,0.00,CLR,,0.00,WeatherDisplay:10.37,2013-11-18 09:32:00,
2013-11-18 03:37:00,50.8,31.8,29.99,NW,322,0.0,0.0,48,0.00,CLR,,0.00,WeatherDisplay:10.37,2013-11-18 09:37:00,
2013-11-18 03:42:00,50.7,33.2,29.99,NW,322,0.0,0.0,51,0.00,CLR,,0.00,WeatherDisplay:10.37,2013-11-18 09:42:00,
2013-11-18 03:47:00,50.7,34.2,29.99,NW,322,0.0,0.0,53,0.00,CLR,,0.00,WeatherDisplay:10.37,2013-11-18 09:47:00,
2013-11-18 03:52:00,50.6,35.0,30.00,NW,322,0.0,0.0,55,0.00,CLR,,0.00,WeatherDisplay:10.37,2013-11-18 09:52:00,
2013-11-18 03:57:00,50.6,35.5,30.00,NW,322,0.0,0.0,56,0.00,CLR,,0.00,WeatherDisplay:10.37,2013-11-18 09:57:00,
2013-11-18 04:02:00,50.5,36.3,30.00,NW,322,0.0,0.0,58,0.00,CLR,,0.00,WeatherDisplay:10.37,2013-11-18 10:02:00,
2013-11-18 04:07:00,50.3,36.5,30.00,NW,322,0.0,0.0,59,0.00,CLR,,0.00,WeatherDisplay:10.37,2013-11-18 10:07:00,
2013-11-18 04:12:00,50.2,36.8,30.00,NW,322,0.0,0.0,60,0.00,CLR,,0.00,WeatherDisplay:10.37,2013-11-18 10:12:00,
2013-11-18 04:17:00,50.0,37.5,30.00,NW,322,0.0,0.0,62,0.00,CLR,,0.00,WeatherDisplay:10.37,2013-11-18 10:17:00,
2013-11-18 04:22:00,49.7,37.6,30.00,NW,322,0.0,0.0,63,0.00,CLR,,0.00,WeatherDisplay:10.37,2013-11-18 10:22:00,
2013-11-18 04:27:00,49.4,38.1,30.00,NW,322,0.0,0.0,65,0.00,CLR,,0.00,WeatherDisplay:10.37,2013-11-18 10:27:00,
2013-11-18 04:32:00,49.2,38.3,30.01,NW,322,0.0,0.0,66,0.00,CLR,,0.00,WeatherDisplay:10.37,2013-11-18 10:32:00,
2013-11-18 04:37:00,49.0,38.5,30.01,NW,322,0.0,0.0,67,0.00,CLR,,0.00,WeatherDisplay:10.37,2013-11-18 10:37:00,
2013-11-18 04:42:00,48.9,38.8,30.01,NW,322,0.0,0.0,68,0.00,CLR,,0.00,WeatherDisplay:10.37,2013-11-18 10:42:00,
2013-11-18 04:47:00,48.9,38.8,30.01,NW,322,0.0,0.0,68,0.00,CLR,,0.00,WeatherDisplay:10.37,2013-11-18 10:47:00,
2013-11-18 04:52:00,48.8,38.7,30.01,NW,322,0.0,0.0,68,0.00,CLR,,0.00,WeatherDisplay:10.37,2013-11-18 10:52:00,
2013-11-18 04:57:00,48.7,39.0,30.02,NW,322,0.0,0.0,69,0.00,CLR,,0.00,WeatherDisplay:10.37,2013-11-18 10:57:00,
2013-11-18 05:02:00,48.7,39.4,30.02,NW,322,0.0,0.0,70,0.00,CLR,,0.00,WeatherDisplay:10.37,2013-11-18 11:02:00,
2013-11-18 05:07:00,48.6,39.3,30.02,NW,322,0.0,0.0,70,0.00,CLR,,0.00,WeatherDisplay:10.37,2013-11-18 11:07:00,
2013-11-18 05:12:00,48.4,39.1,30.02,NW,322,0.0,0.0,70,0.00,CLR,,0.00,WeatherDisplay:10.37,2013-11-18 11:12:00,
2013-11-18 05:17:00,48.1,38.8,30.02,NW,322,0.0,0.0,70,0.00,CLR,,0.00,WeatherDisplay:10.37,2013-11-18 11:17:00,
2013-11-18 05:22:00,47.8,38.8,30.02,NW,322,0.0,0.0,71,0.00,CLR,,0.00,WeatherDisplay:10.37,2013-11-18 11:22:00,
2013-11-18 05:27:00,47.4,38.5,30.02,NW,322,0.0,0.0,71,0.00,CLR,,0.00,WeatherDisplay:10.37,2013-11-18 11:27:00,
2013-11-18 05:33:00,46.8,38.2,30.02,NW,322,0.0,0.0,72,0.00,CLR,,0.00,WeatherDisplay:10.37,2013-11-18 11:33:00,
2013-11-18 05:38:00,46.3,38.5,30.02,NW,322,0.0,0.0,74,0.00,CLR,,0.00,WeatherDisplay:10.37,2013-11-18 11:38:00,
2013-11-18 05:43:00,46.1,38.3,30.03,NW,322,0.0,0.0,74,0.00,CLR,,0.00,WeatherDisplay:10.37,2013-11-18 11:43:00,
2013-11-18 05:48:00,46.0,38.5,30.03,NW,322,0.0,0.0,75,0.00,CLR,,0.00,WeatherDisplay:10.37,2013-11-18 11:48:00,
2013-11-18 05:53:00,45.6,38.1,30.03,NW,322,0.0,0.0,75,0.00,CLR,,0.00,WeatherDisplay:10.37,2013-11-18 11:53:00,
2013-11-18 05:58:00,45.2,37.7,30.03,NW,322,0.0,0.0,75,0.00,CLR,,0.00,WeatherDisplay:10.37,2013-11-18 11:58:00,
2013-11-18 06:03:00,44.7,37.6,30.04,NW,322,1.1,1.1,76,0.00,CLR,,0.00,WeatherDisplay:10.37,2013-11-18 12:03:00,
2013-11-18 06:08:00,44.6,38.2,30.04,NW,322,0.0,0.0,78,0.00,CLR,,0.00,WeatherDisplay:10.37,2013-11-18 12:08:00,
2013-11-18 06:13:00,44.7,38.3,30.05,NW,322,0.0,0.0,78,0.00,CLR,,0.00,WeatherDisplay:10.37,2013-11-18 12:13:00,
2013-11-18 06:18:00,45.0,38.9,30.05,NW,322,0.0,0.0,79,0.00,CLR,,0.00,WeatherDisplay:10.37,2013-11-18 12:18:00,
2013-11-18 06:23:00,45.4,38.9,30.05,NW,322,0.0,0.0,78,0.00,CLR,,0.00,WeatherDisplay:10.37,2013-11-18 12:23:00,
2013-11-18 06:28:00,45.7,38.9,30.05,NW,322,0.0,0.0,77,0.00,CLR,,0.00,WeatherDisplay:10.37,2013-11-18 12:28:00,
2013-11-18 06:33:00,45.9,38.8,30.05,NW,318,0.0,0.0,76,0.00,CLR,,0.00,WeatherDisplay:10.37,2013-11-18 12:33:00,
2013-11-18 06:38:00,46.2,38.7,30.06,NW,318,0.0,0.0,75,0.00,CLR,,0.00,WeatherDisplay:10.37,2013-11-18 12:38:00,
2013-11-18 06:43:00,46.5,38.3,30.06,NW,318,0.0,0.0,73,0.00,CLR,,0.00,WeatherDisplay:10.37,2013-11-18 12:43:00,
2013-11-18 06:48:00,46.9,38.3,30.06,NW,318,0.0,0.0,72,0.00,CLR,,0.00,WeatherDisplay:10.37,2013-11-18 12:48:00,
2013-11-18 06:53:00,47.0,38.4,30.06,NW,316,0.0,0.0,72,0.00,CLR,,0.00,WeatherDisplay:10.37,2013-11-18 12:53:00,
2013-11-18 06:58:00,47.1,38.2,30.07,NW,304,0.0,0.0,71,0.00,CLR,,0.00,WeatherDisplay:10.37,2013-11-18 12:58:00,
2013-11-18 07:03:00,47.2,38.3,30.07,NW,323,0.0,0.0,71,0.00,CLR,,0.00,WeatherDisplay:10.37,2013-11-18 13:03:00,
2013-11-18 07:08:00,47.3,38.7,30.07,NW,325,0.0,0.0,72,0.00,CLR,,0.00,WeatherDisplay:10.37,2013-11-18 13:08:00,
2013-11-18 07:13:00,47.4,38.5,30.07,NW,315,2.3,2.3,71,0.00,CLR,,0.00,WeatherDisplay:10.37,2013-11-18 13:13:00,
2013-11-18 07:18:00,47.6,38.7,30.07,NW,315,0.0,0.0,71,0.00,CLR,,0.00,WeatherDisplay:10.37,2013-11-18 13:18:00,
2013-11-18 07:23:00,47.6,38.7,30.07,NW,315,0.0,0.0,71,0.00,CLR,,0.00,WeatherDisplay:10.37,2013-11-18 13:23:00,
2013-11-18 07:28:00,47.7,39.1,30.08,NW,315,0.0,0.0,72,0.00,CLR,,0.00,WeatherDisplay:10.37,2013-11-18 13:28:00,
2013-11-18 07:33:00,47.7,39.1,30.08,WNW,303,0.0,0.0,72,0.00,CLR,,0.00,WeatherDisplay:10.37,2013-11-18 13:33:00,
2013-11-18 07:38:00,47.9,39.3,30.08,WNW,303,0.0,0.0,72,0.00,CLR,,0.00,WeatherDisplay:10.37,2013-11-18 13:38:00,
2013-11-18 07:43:00,48.1,39.5,30.08,WNW,303,0.0,0.0,72,0.00,CLR,,0.00,WeatherDisplay:10.37,2013-11-18 13:43:00,
2013-11-18 07:48:00,48.3,39.7,30.08,WNW,303,0.0,0.0,72,0.00,CLR,,0.00,WeatherDisplay:10.37,2013-11-18 13:48:00,
2013-11-18 07:53:00,48.6,40.0,30.08,NW,313,0.0,0.0,72,0.00,CLR,,0.00,WeatherDisplay:10.37,2013-11-18 13:53:00,
2013-11-18 07:58:00,49.0,40.0,30.08,NW,321,1.1,1.1,71,0.00,CLR,,0.00,WeatherDisplay:10.37,2013-11-18 13:58:00,
2013-11-18 08:03:00,49.4,40.4,30.09,NW,321,0.0,0.0,71,0.00,CLR,,0.00,WeatherDisplay:10.37,2013-11-18 14:03:00,
2013-11-18 08:08:00,49.8,40.8,30.09,NW,321,0.0,0.0,71,0.00,CLR,,0.00,WeatherDisplay:10.37,2013-11-18 14:08:00,
2013-11-18 08:13:00,50.2,41.2,30.10,NW,316,1.1,0.0,71,0.00,CLR,,0.00,WeatherDisplay:10.37,2013-11-18 14:13:00,
2013-11-18 08:18:00,50.6,41.2,30.10,West,281,3.5,3.5,70,0.00,CLR,,0.00,WeatherDisplay:10.37,2013-11-18 14:18:00,
2013-11-18 08:23:00,50.8,41.0,30.10,West,268,4.6,4.6,69,0.00,CLR,,0.00,WeatherDisplay:10.37,2013-11-18 14:23:00,
2013-11-18 08:28:00,51.1,41.3,30.10,West,274,3.5,3.5,69,0.00,CLR,,0.00,WeatherDisplay:10.37,2013-11-18 14:28:00,
2013-11-18 08:33:00,51.4,41.9,30.10,West,264,4.6,4.6,70,0.00,CLR,,0.00,WeatherDisplay:10.37,2013-11-18 14:33:00,
2013-11-18 08:38:00,51.7,42.2,30.11,NW,304,2.3,2.3,70,0.00,CLR,,0.00,WeatherDisplay:10.37,2013-11-18 14:38:00,
2013-11-18 08:43:00,52.0,42.1,30.11,WNW,288,6.9,6.9,69,0.00,CLR,,0.00,WeatherDisplay:10.37,2013-11-18 14:43:00,
2013-11-18 08:48:00,52.3,42.0,30.11,NNW,331,8.1,8.1,68,0.00,CLR,,0.00,WeatherDisplay:10.37,2013-11-18 14:48:00,
2013-11-18 08:53:00,52.6,42.3,30.11,West,271,3.5,3.5,68,0.00,CLR,,0.00,WeatherDisplay:10.37,2013-11-18 14:53:00,
2013-11-18 08:58:00,52.8,42.5,30.11,West,278,3.5,0.0,68,0.00,CLR,,0.00,WeatherDisplay:10.37,2013-11-18 14:58:00,
2013-11-18 09:03:00,53.2,42.5,30.12,NW,315,4.6,4.6,67,0.00,CLR,,0.00,WeatherDisplay:10.37,2013-11-18 15:03:00,
2013-11-18 09:08:00,53.4,41.9,30.12,West,265,9.2,9.2,65,0.00,CLR,,0.00,WeatherDisplay:10.37,2013-11-18 15:08:00,
2013-11-18 09:13:00,53.6,42.1,30.12,West,274,9.2,9.2,65,0.00,CLR,,0.00,WeatherDisplay:10.37,2013-11-18 15:13:00,
2013-11-18 09:18:00,53.9,42.8,30.12,West,261,4.6,4.6,66,0.00,CLR,,0.00,WeatherDisplay:10.37,2013-11-18 15:18:00,
2013-11-18 09:23:00,54.1,41.8,30.12,West,259,4.6,4.6,63,0.00,CLR,,0.00,WeatherDisplay:10.37,2013-11-18 15:23:00,
2013-11-18 09:28:00,54.3,42.8,30.12,NW,316,2.3,2.3,65,0.00,CLR,,0.00,WeatherDisplay:10.37,2013-11-18 15:28:00,
2013-11-18 09:33:00,54.4,41.6,30.13,WNW,291,10.4,10.4,62,0.00,CLR,,0.00,WeatherDisplay:10.37,2013-11-18 15:33:00,
2013-11-18 09:38:00,54.5,42.2,30.13,West,279,9.2,9.2,63,0.00,CLR,,0.00,WeatherDisplay:10.37,2013-11-18 15:38:00,
2013-11-18 09:43:00,54.6,42.3,30.13,West,264,5.0,5.0,63,0.00,CLR,,0.00,WeatherDisplay:10.37,2013-11-18 15:43:00,
2013-11-18 09:48:00,54.8,42.9,30.14,West,263,11.5,11.5,64,0.00,CLR,,0.00,WeatherDisplay:10.37,2013-11-18 15:48:00,
2013-11-18 09:51:00,55.0,42.2,30.14,WNW,300,5.8,5.8,62,0.00,CLR,,0.00,WeatherDisplay:10.37,2013-11-18 15:51:00,
2013-11-18 09:56:00,55.2,42.0,30.14,WNW,299,5.0,5.0,61,0.00,CLR,,0.00,WeatherDisplay:10.37,2013-11-18 15:56:00,
2013-11-18 10:01:00,55.4,42.6,30.14,WSW,252,4.0,4.0,62,0.00,CLR,,0.00,WeatherDisplay:10.37,2013-11-18 16:01:00,
2013-11-18 10:06:00,55.6,42.8,30.14,West,262,6.9,6.9,62,0.00,CLR,,0.00,WeatherDisplay:10.37,2013-11-18 16:06:00,
2013-11-18 10:11:00,55.9,42.2,30.14,West,271,11.5,11.5,60,0.00,CLR,,0.00,WeatherDisplay:10.37,2013-11-18 16:11:00,
2013-11-18 10:16:00,55.9,41.8,30.13,SW,232,7.0,7.0,59,0.00,CLR,,0.00,WeatherDisplay:10.37,2013-11-18 16:16:00,
2013-11-18 10:21:00,55.9,42.2,30.13,WNW,291,10.4,10.4,60,0.00,CLR,,0.00,WeatherDisplay:10.37,2013-11-18 16:21:00,
2013-11-18 10:26:00,56.2,42.1,30.13,WNW,293,8.1,8.1,59,0.00,CLR,,0.00,WeatherDisplay:10.37,2013-11-18 16:26:00,
2013-11-18 10:31:00,56.3,42.6,30.13,NW,317,6.9,6.9,60,0.00,CLR,,0.00,WeatherDisplay:10.37,2013-11-18 16:31:00,
2013-11-18 10:36:00,56.6,42.9,30.13,NW,304,4.6,4.6,60,0.00,CLR,,0.00,WeatherDisplay:10.37,2013-11-18 16:36:00,
2013-11-18 10:41:00,56.8,42.6,30.13,WSW,256,9.2,9.2,59,0.00,CLR,,0.00,WeatherDisplay:10.37,2013-11-18 16:41:00,
2013-11-18 10:46:00,57.1,42.9,30.13,NW,325,5.8,5.8,59,0.00,CLR,,0.00,WeatherDisplay:10.37,2013-11-18 16:46:00,
2013-11-18 10:51:00,57.3,41.7,30.13,West,269,11.5,11.5,56,0.00,CLR,,0.00,WeatherDisplay:10.37,2013-11-18 16:51:00,
2013-11-18 10:56:00,57.5,43.3,30.12,NW,322,5.8,5.8,59,0.00,CLR,,0.00,WeatherDisplay:10.37,2013-11-18 16:56:00,
2013-11-18 11:01:00,57.7,41.6,30.12,WNW,299,5.0,5.0,55,0.00,CLR,,0.00,WeatherDisplay:10.37,2013-11-18 17:01:00,
2013-11-18 11:06:00,57.7,43.0,30.12,WSW,256,9.2,9.2,58,0.00,CLR,,0.00,WeatherDisplay:10.37,2013-11-18 17:06:00,
2013-11-18 11:11:00,57.9,42.8,30.12,NNW,327,5.8,5.8,57,0.00,CLR,,0.00,WeatherDisplay:10.37,2013-11-18 17:11:00,
2013-11-18 11:16:00,58.0,42.4,30.12,NW,315,10.0,10.0,56,0.00,CLR,,0.00,WeatherDisplay:10.37,2013-11-18 17:16:00,
2013-11-18 11:21:00,57.8,41.7,30.12,WSW,246,16.0,16.0,55,0.00,CLR,,0.00,WeatherDisplay:10.37,2013-11-18 17:21:00,
2013-11-18 11:26:00,57.7,41.6,30.12,WSW,257,16.1,16.1,55,0.00,CLR,,0.00,WeatherDisplay:10.37,2013-11-18 17:26:00,
2013-11-18 11:31:00,57.7,42.1,30.12,WSW,253,11.5,11.5,56,0.00,CLR,,0.00,WeatherDisplay:10.37,2013-11-18 17:31:00,
2013-11-18 11:36:00,58.1,42.0,30.11,NNW,340,6.9,6.9,55,0.00,CLR,,0.00,WeatherDisplay:10.37,2013-11-18 17:36:00,
2013-11-18 11:41:00,58.1,40.6,30.11,NNW,333,9.2,9.2,52,0.00,CLR,,0.00,WeatherDisplay:10.37,2013-11-18 17:41:00,
2013-11-18 11:46:00,58.2,42.1,30.11,WSW,250,8.1,8.1,55,0.00,CLR,,0.00,WeatherDisplay:10.37,2013-11-18 17:46:00,
2013-11-18 11:51:00,58.4,42.3,30.11,WSW,257,9.2,9.2,55,0.00,CLR,,0.00,WeatherDisplay:10.37,2013-11-18 17:51:00,
2013-11-18 11:56:00,58.6,42.0,30.11,West,260,12.7,12.7,54,0.00,CLR,,0.00,WeatherDisplay:10.37,2013-11-18 17:56:00,
2013-11-18 12:01:00,58.7,41.1,30.12,West,280,17.3,17.3,52,0.00,CLR,,0.00,WeatherDisplay:10.37,2013-11-18 18:01:00,
2013-11-18 12:06:00,58.9,42.8,30.12,West,279,13.8,13.8,55,0.00,CLR,,0.00,WeatherDisplay:10.37,2013-11-18 18:06:00,
2013-11-18 12:11:00,59.1,42.0,30.12,NW,309,6.0,6.0,53,0.00,CLR,,0.00,WeatherDisplay:10.37,2013-11-18 18:11:00,
2013-11-18 12:16:00,59.1,42.0,30.12,WNW,302,8.1,8.1,53,0.00,CLR,,0.00,WeatherDisplay:10.37,2013-11-18 18:16:00,
2013-11-18 12:21:00,59.2,41.1,30.11,West,281,9.2,9.7,51,0.00,CLR,,0.00,WeatherDisplay:10.37,2013-11-18 18:21:00,
2013-11-18 12:26:00,59.2,40.6,30.12,WSW,250,13.8,13.8,50,0.00,CLR,,0.00,WeatherDisplay:10.37,2013-11-18 18:26:00,
2013-11-18 12:31:00,59.4,40.2,30.12,West,271,10.4,10.4,49,0.00,CLR,,0.00,WeatherDisplay:10.37,2013-11-18 18:31:00,
2013-11-18 12:36:00,59.7,40.5,30.12,NW,325,12.7,12.7,49,0.00,CLR,,0.00,WeatherDisplay:10.37,2013-11-18 18:36:00,
2013-11-18 12:42:00,59.6,39.3,30.12,West,264,16.1,16.1,47,0.00,CLR,,0.00,WeatherDisplay:10.37,2013-11-18 18:42:00,
2013-11-18 12:47:00,59.6,38.8,30.12,WSW,258,12.7,12.7,46,0.00,CLR,,0.00,WeatherDisplay:10.37,2013-11-18 18:47:00,
2013-11-18 12:52:00,59.3,37.9,30.12,NNW,330,9.2,9.2,45,0.00,CLR,,0.00,WeatherDisplay:10.37,2013-11-18 18:52:00,
2013-11-18 12:57:00,59.1,38.9,30.12,NW,325,11.5,11.5,47,0.00,CLR,,0.00,WeatherDisplay:10.37,2013-11-18 18:57:00,
2013-11-18 13:02:00,59.3,38.5,30.12,North,5,5.8,5.8,46,0.00,CLR,,0.00,WeatherDisplay:10.37,2013-11-18 19:02:00,
2013-11-18 13:07:00,59.4,38.6,30.12,NNW,346,3.5,3.5,46,0.00,CLR,,0.00,WeatherDisplay:10.37,2013-11-18 19:07:00,
2013-11-18 13:12:00,59.5,38.7,30.12,West,269,16.1,16.1,46,0.00,CLR,,0.00,WeatherDisplay:10.37,2013-11-18 19:12:00,
2013-11-18 13:17:00,60.0,38.6,30.12,West,271,6.0,6.0,45,0.00,CLR,,0.00,WeatherDisplay:10.37,2013-11-18 19:17:00,
2013-11-18 13:22:00,60.2,33.8,30.12,WNW,287,9.2,9.2,37,0.00,CLR,,0.00,WeatherDisplay:10.37,2013-11-18 19:22:00,
2013-11-18 13:27:00,60.0,31.5,30.12,North,360,2.3,2.3,34,0.00,CLR,,0.00,WeatherDisplay:10.37,2013-11-18 19:27:00,
2013-11-18 13:32:00,60.1,32.3,30.13,NNW,342,9.2,9.2,35,0.00,CLR,,0.00,WeatherDisplay:10.37,2013-11-18 19:32:00,
2013-11-18 13:37:00,59.9,32.2,30.13,North,360,8.1,8.1,35,0.00,CLR,,0.00,WeatherDisplay:10.37,2013-11-18 19:37:00,
2013-11-18 13:42:00,59.8,34.8,30.13,NW,321,8.1,8.1,39,0.00,CLR,,0.00,WeatherDisplay:10.37,2013-11-18 19:42:00,
2013-11-18 13:47:00,60.2,33.1,30.13,NNW,347,6.9,6.9,36,0.00,CLR,,0.00,WeatherDisplay:10.37,2013-11-18 19:47:00,
2013-11-18 13:52:00,60.4,32.6,30.13,NW,324,10.4,10.4,35,0.00,CLR,,0.00,WeatherDisplay:10.37,2013-11-18 19:52:00,
2013-11-18 13:57:00,60.2,33.1,30.13,NW,306,6.9,6.9,36,0.00,CLR,,0.00,WeatherDisplay:10.37,2013-11-18 19:57:00,
2013-11-18 14:02:00,60.1,33.0,30.13,NW,311,9.2,9.2,36,0.00,CLR,,0.00,WeatherDisplay:10.37,2013-11-18 20:02:00,
2013-11-18 14:07:00,60.2,34.5,30.13,North,9,8.1,8.1,38,0.00,CLR,,0.00,WeatherDisplay:10.37,2013-11-18 20:07:00,
2013-11-18 14:12:00,59.8,32.8,30.13,NNW,327,9.2,9.2,36,0.00,CLR,,0.00,WeatherDisplay:10.37,2013-11-18 20:12:00,
2013-11-18 14:17:00,59.8,33.5,30.13,West,270,5.8,5.8,37,0.00,CLR,,0.00,WeatherDisplay:10.37,2013-11-18 20:17:00,
2013-11-18 14:22:00,59.9,31.4,30.13,WNW,295,3.5,3.5,34,0.00,CLR,,0.00,WeatherDisplay:10.37,2013-11-18 20:22:00,
2013-11-18 14:27:00,59.7,31.3,30.14,NNW,347,2.0,2.0,34,0.00,CLR,,0.00,WeatherDisplay:10.37,2013-11-18 20:27:00,
2013-11-18 14:32:00,59.5,30.3,30.14,North,355,3.5,3.5,33,0.00,CLR,,0.00,WeatherDisplay:10.37,2013-11-18 20:32:00,
2013-11-18 14:37:00,59.3,30.2,30.14,North,355,5.8,5.8,33,0.00,CLR,,0.00,WeatherDisplay:10.37,2013-11-18 20:37:00,
2013-11-18 14:42:00,59.1,30.7,30.14,North,355,3.5,3.5,34,0.00,CLR,,0.00,WeatherDisplay:10.37,2013-11-18 20:42:00,
2013-11-18 14:47:00,59.0,33.4,30.14,WNW,296,9.0,9.0,38,0.00,CLR,,0.00,WeatherDisplay:10.37,2013-11-18 20:47:00,
2013-11-18 14:52:00,59.0,31.4,30.14,NW,304,7.0,7.0,35,0.00,CLR,,0.00,WeatherDisplay:10.37,2013-11-18 20:52:00,
2013-11-18 14:57:00,58.9,32.0,30.14,NW,324,2.3,0.0,36,0.00,CLR,,0.00,WeatherDisplay:10.37,2013-11-18 20:57:00,
2013-11-18 15:02:00,59.0,32.1,30.15,North,355,10.4,10.4,36,0.00,CLR,,0.00,WeatherDisplay:10.37,2013-11-18 21:02:00,
2013-11-18 15:07:00,58.9,31.3,30.15,NNW,342,5.8,5.8,35,0.00,CLR,,0.00,WeatherDisplay:10.37,2013-11-18 21:07:00,
2013-11-18 15:12:00,58.8,31.9,30.15,NNW,338,3.5,3.5,36,0.00,CLR,,0.00,WeatherDisplay:10.37,2013-11-18 21:12:00,
2013-11-18 15:17:00,58.7,31.1,30.15,NW,325,11.5,11.5,35,0.00,CLR,,0.00,WeatherDisplay:10.37,2013-11-18 21:17:00,
2013-11-18 15:22:00,58.7,31.1,30.15,WNW,301,3.5,3.5,35,0.00,CLR,,0.00,WeatherDisplay:10.37,2013-11-18 21:22:00,
2013-11-18 15:27:00,58.6,30.3,30.15,NNW,336,4.0,4.0,34,0.00,CLR,,0.00,WeatherDisplay:10.37,2013-11-18 21:27:00,
2013-11-18 15:32:00,58.5,31.6,30.15,NNE,13,4.6,4.6,36,0.00,CLR,,0.00,WeatherDisplay:10.37,2013-11-18 21:32:00,
2013-11-18 15:37:00,58.3,30.0,30.15,NNE,14,9.2,9.2,34,0.00,CLR,,0.00,WeatherDisplay:10.37,2013-11-18 21:37:00,
2013-11-18 15:42:00,58.1,29.8,30.15,NW,321,3.0,3.0,34,0.00,CLR,,0.00,WeatherDisplay:10.37,2013-11-18 21:42:00,
2013-11-18 15:47:00,57.9,28.9,30.16,North,5,5.0,5.0,33,0.00,CLR,,0.00,WeatherDisplay:10.37,2013-11-18 21:47:00,
2013-11-18 15:52:00,57.7,29.5,30.16,NNW,335,2.0,2.0,34,0.00,CLR,,0.00,WeatherDisplay:10.37,2013-11-18 21:52:00,
2013-11-18 15:57:00,57.4,29.2,30.16,NNW,343,0.0,0.0,34,0.00,CLR,,0.00,WeatherDisplay:10.37,2013-11-18 21:57:00,
2013-11-18 16:02:00,57.2,30.5,30.16,NNW,332,3.0,3.0,36,0.00,CLR,,0.00,WeatherDisplay:10.37,2013-11-18 22:02:00,
2013-11-18 16:07:00,57.0,30.3,30.16,North,355,3.0,3.0,36,0.00,CLR,,0.00,WeatherDisplay:10.37,2013-11-18 22:07:00,
2013-11-18 16:12:00,56.8,30.8,30.16,NW,311,6.9,6.9,37,0.00,CLR,,0.00,WeatherDisplay:10.37,2013-11-18 22:12:00,
2013-11-18 16:17:00,56.6,29.9,30.16,NW,323,2.0,2.0,36,0.00,CLR,,0.00,WeatherDisplay:10.37,2013-11-18 22:17:00,
2013-11-18 16:22:00,56.3,29.7,30.16,NW,325,0.0,0.0,36,0.00,CLR,,0.00,WeatherDisplay:10.37,2013-11-18 22:22:00,
2013-11-18 16:27:00,56.2,29.6,30.17,NNW,338,2.3,2.3,36,0.00,CLR,,0.00,WeatherDisplay:10.37,2013-11-18 22:27:00,
2013-11-18 16:32:00,55.9,30.0,30.17,NW,324,0.0,0.0,37,0.00,CLR,,0.00,WeatherDisplay:10.37,2013-11-18 22:32:00,
2013-11-18 16:37:00,55.6,29.7,30.17,NW,324,0.0,0.0,37,0.00,CLR,,0.00,WeatherDisplay:10.37,2013-11-18 22:37:00,
2013-11-18 16:42:00,55.2,29.4,30.17,NW,324,0.0,0.0,37,0.00,CLR,,0.00,WeatherDisplay:10.37,2013-11-18 22:42:00,
2013-11-18 16:47:00,54.9,28.4,30.17,WNW,287,0.0,0.7,36,0.00,CLR,,0.00,WeatherDisplay:10.37,2013-11-18 22:47:00,
2013-11-18 16:52:00,54.5,28.1,30.17,WNW,300,0.0,0.0,36,0.00,CLR,,0.00,WeatherDisplay:10.37,2013-11-18 22:52:00,
2013-11-18 16:57:00,54.2,27.8,30.17,NW,310,0.0,0.0,36,0.00,CLR,,0.00,WeatherDisplay:10.37,2013-11-18 22:57:00,
2013-11-18 17:02:00,53.9,27.5,30.18,NNW,343,0.0,0.0,36,0.00,CLR,,0.00,WeatherDisplay:10.37,2013-11-18 23:02:00,
2013-11-18 17:07:00,53.6,27.9,30.18,NNW,341,0.0,0.0,37,0.00,CLR,,0.00,WeatherDisplay:10.37,2013-11-18 23:07:00,
2013-11-18 17:12:00,53.2,27.6,30.18,NNW,341,0.0,0.0,37,0.00,CLR,,0.00,WeatherDisplay:10.37,2013-11-18 23:12:00,
2013-11-18 17:17:00,52.8,27.2,30.18,NNW,341,0.0,0.0,37,0.00,CLR,,0.00,WeatherDisplay:10.37,2013-11-18 23:17:00,
2013-11-18 17:22:00,52.5,27.6,30.18,NW,318,0.0,0.0,38,0.00,CLR,,0.00,WeatherDisplay:10.37,2013-11-18 23:22:00,
2013-11-18 17:27:00,52.2,28.0,30.18,NW,326,0.0,0.0,39,0.00,CLR,,0.00,WeatherDisplay:10.37,2013-11-18 23:27:00,
2013-11-18 17:32:00,52.0,27.8,30.18,NW,325,0.0,0.0,39,0.00,CLR,,0.00,WeatherDisplay:10.37,2013-11-18 23:32:00,
2013-11-18 17:37:00,51.8,27.6,30.18,NNW,338,0.0,0.0,39,0.00,CLR,,0.00,WeatherDisplay:10.37,2013-11-18 23:37:00,
2013-11-18 17:42:00,51.7,27.5,30.19,NNW,338,0.0,0.0,39,0.00,CLR,,0.00,WeatherDisplay:10.37,2013-11-18 23:42:00,
2013-11-18 17:47:00,51.5,27.9,30.19,NNW,338,0.0,0.0,40,0.00,CLR,,0.00,WeatherDisplay:10.37,2013-11-18 23:47:00,
2013-11-18 17:52:00,51.4,27.9,30.19,NNW,338,0.0,0.0,40,0.00,CLR,,0.00,WeatherDisplay:10.37,2013-11-18 23:52:00,
2013-11-18 17:57:00,51.1,28.2,30.19,NNW,338,0.0,0.0,41,0.00,CLR,,0.00,WeatherDisplay:10.37,2013-11-18 23:57:00,
2013-11-18 18:03:00,50.8,29.1,30.19,NNW,338,0.0,0.0,43,0.00,CLR,,0.00,WeatherDisplay:10.37,2013-11-19 00:03:00,
2013-11-18 18:08:00,50.4,28.1,30.19,NNW,338,0.0,0.0,42,0.00,CLR,,0.00,WeatherDisplay:10.37,2013-11-19 00:08:00,
2013-11-18 18:13:00,50.0,28.4,30.19,NNW,338,0.0,0.0,43,0.00,CLR,,0.00,WeatherDisplay:10.37,2013-11-19 00:13:00,
2013-11-18 18:18:00,49.5,27.9,30.19,NNW,338,0.0,0.0,43,0.00,CLR,,0.00,WeatherDisplay:10.37,2013-11-19 00:18:00,
2013-11-18 18:23:00,49.0,27.5,30.19,NNW,338,0.0,0.0,43,0.00,CLR,,0.00,WeatherDisplay:10.37,2013-11-19 00:23:00,
2013-11-18 18:28:00,48.5,28.1,30.19,NNW,338,0.0,0.0,45,0.00,CLR,,0.00,WeatherDisplay:10.37,2013-11-19 00:28:00,
2013-11-18 18:33:00,47.9,28.1,30.19,NNW,338,0.0,0.0,46,0.00,CLR,,0.00,WeatherDisplay:10.37,2013-11-19 00:33:00,
2013-11-18 18:38:00,47.6,28.3,30.19,NNW,338,0.0,0.0,47,0.00,CLR,,0.00,WeatherDisplay:10.37,2013-11-19 00:38:00,
2013-11-18 18:43:00,47.3,28.1,30.19,NNW,338,0.0,0.0,47,0.00,CLR,,0.00,WeatherDisplay:10.37,2013-11-19 00:43:00,
2013-11-18 18:48:00,47.1,28.4,30.20,NNW,338,0.0,0.0,48,0.00,CLR,,0.00,WeatherDisplay:10.37,2013-11-19 00:48:00,
2013-11-18 18:53:00,46.9,27.7,30.20,NNW,338,0.0,0.0,47,0.00,CLR,,0.00,WeatherDisplay:10.37,2013-11-19 00:53:00,
2013-11-18 18:58:00,46.6,26.9,30.20,NNW,338,0.0,0.0,46,0.00,CLR,,0.00,WeatherDisplay:10.37,2013-11-19 00:58:00,
2013-11-18 19:03:00,46.4,26.7,30.20,NNW,338,0.0,0.0,46,0.00,CLR,,0.00,WeatherDisplay:10.37,2013-11-19 01:03:00,
2013-11-18 19:08:00,46.3,29.1,30.20,NNW,338,0.0,0.0,51,0.00,CLR,,0.00,WeatherDisplay:10.37,2013-11-19 01:08:00,
2013-11-18 19:13:00,45.9,27.8,30.20,NNW,338,0.0,0.0,49,0.00,CLR,,0.00,WeatherDisplay:10.37,2013-11-19 01:13:00,
2013-11-18 19:18:00,45.6,29.0,30.20,NNW,338,0.0,0.0,52,0.00,CLR,,0.00,WeatherDisplay:10.37,2013-11-19 01:18:00,
2013-11-18 19:23:00,45.2,29.1,30.20,NNW,338,0.0,0.0,53,0.00,CLR,,0.00,WeatherDisplay:10.37,2013-11-19 01:23:00,
2013-11-18 19:28:00,44.9,28.3,30.21,NNW,338,0.0,0.0,52,0.00,CLR,,0.00,WeatherDisplay:10.37,2013-11-19 01:28:00,
2013-11-18 19:33:00,44.6,27.6,30.21,NNW,338,0.0,0.0,51,0.00,CLR,,0.00,WeatherDisplay:10.37,2013-11-19 01:33:00,
2013-11-18 19:38:00,44.4,27.4,30.21,NNW,338,0.0,0.0,51,0.00,CLR,,0.00,WeatherDisplay:10.37,2013-11-19 01:38:00,
2013-11-18 19:43:00,44.2,27.2,30.21,NNW,338,0.0,0.0,51,0.00,CLR,,0.00,WeatherDisplay:10.37,2013-11-19 01:43:00,
2013-11-18 19:44:00,44.2,27.2,30.21,NNW,338,0.0,0.0,51,0.00,CLR,,0.00,WeatherDisplay:10.37,2013-11-19 01:44:00,
2013-11-18 19:49:00,44.1,27.1,30.21,NNW,338,0.0,0.0,51,0.00,CLR,,0.00,WeatherDisplay:10.37,2013-11-19 01:49:00,
2013-11-18 19:54:00,44.0,27.5,30.22,NNW,338,0.0,0.0,52,0.00,CLR,,0.00,WeatherDisplay:10.37,2013-11-19 01:54:00,
2013-11-18 19:59:00,43.9,27.4,30.22,NNW,338,0.0,0.0,52,0.00,CLR,,0.00,WeatherDisplay:10.37,2013-11-19 01:59:00,
2013-11-18 20:04:00,43.7,27.2,30.22,NNW,338,0.0,0.0,52,0.00,CLR,,0.00,WeatherDisplay:10.37,2013-11-19 02:04:00,
2013-11-18 20:09:00,43.6,28.9,30.22,NNW,338,0.0,0.0,56,0.00,CLR,,0.00,WeatherDisplay:10.37,2013-11-19 02:09:00,
2013-11-18 20:14:00,43.4,28.7,30.22,NNW,338,0.0,0.0,56,0.00,CLR,,0.00,WeatherDisplay:10.37,2013-11-19 02:14:00,
2013-11-18 20:19:00,43.3,28.2,30.22,NNW,338,0.0,0.0,55,0.00,CLR,,0.00,WeatherDisplay:10.37,2013-11-19 02:19:00,
2013-11-18 20:24:00,43.3,27.3,30.22,NNW,338,0.0,0.0,53,0.00,CLR,,0.00,WeatherDisplay:10.37,2013-11-19 02:24:00,
2013-11-18 20:29:00,43.3,28.2,30.22,NNW,338,0.0,0.0,55,0.00,CLR,,0.00,WeatherDisplay:10.37,2013-11-19 02:29:00,
2013-11-18 20:35:00,43.2,29.8,30.22,NNW,338,0.0,0.0,59,0.00,CLR,,0.00,WeatherDisplay:10.37,2013-11-19 02:35:00,
2013-11-18 20:40:00,42.9,29.5,30.22,NNW,338,0.0,0.0,59,0.00,CLR,,0.00,WeatherDisplay:10.37,2013-11-19 02:40:00,
2013-11-18 20:45:00,42.6,29.3,30.23,NNW,338,0.0,0.0,59,0.00,CLR,,0.00,WeatherDisplay:10.37,2013-11-19 02:45:00,
2013-11-18 20:50:00,42.4,29.9,30.23,NNW,338,0.0,0.0,61,0.00,CLR,,0.00,WeatherDisplay:10.37,2013-11-19 02:50:00,
2013-11-18 20:55:00,42.1,29.6,30.23,NNW,338,0.0,0.0,61,0.00,CLR,,0.00,WeatherDisplay:10.37,2013-11-19 02:55:00,
2013-11-18 21:00:00,41.8,30.2,30.23,NNW,338,0.0,0.0,63,0.00,CLR,,0.00,WeatherDisplay:10.37,2013-11-19 03:00:00,
2013-11-18 21:05:00,41.6,30.3,30.23,NNW,338,0.0,0.0,64,0.00,CLR,,0.00,WeatherDisplay:10.37,2013-11-19 03:05:00,
2013-11-18 21:10:00,41.2,29.9,30.23,NNW,338,0.0,0.0,64,0.00,CLR,,0.00,WeatherDisplay:10.37,2013-11-19 03:10:00,
2013-11-18 21:15:00,41.0,30.5,30.23,NNW,338,0.0,0.0,66,0.00,CLR,,0.00,WeatherDisplay:10.37,2013-11-19 03:15:00,
2013-11-18 21:20:00,40.7,29.1,30.24,NNW,338,0.0,0.0,63,0.00,CLR,,0.00,WeatherDisplay:10.37,2013-11-19 03:20:00,
2013-11-18 21:25:00,40.4,28.8,30.24,NNW,338,0.0,0.0,63,0.00,CLR,,0.00,WeatherDisplay:10.37,2013-11-19 03:25:00,
2013-11-18 21:30:00,40.2,29.4,30.24,NNW,338,0.0,0.0,65,0.00,CLR,,0.00,WeatherDisplay:10.37,2013-11-19 03:30:00,
2013-11-18 21:35:00,40.0,30.3,30.24,NNW,338,0.0,0.0,68,0.00,CLR,,0.00,WeatherDisplay:10.37,2013-11-19 03:35:00,
2013-11-18 21:40:00,39.8,30.5,30.24,NNW,338,0.0,0.0,69,0.00,CLR,,0.00,WeatherDisplay:10.37,2013-11-19 03:40:00,
2013-11-18 21:45:00,39.6,30.3,30.24,NNW,338,0.0,0.0,69,0.00,CLR,,0.00,WeatherDisplay:10.37,2013-11-19 03:45:00,
2013-11-18 21:50:00,39.3,29.6,30.24,NNW,338,0.0,0.0,68,0.00,CLR,,0.00,WeatherDisplay:10.37,2013-11-19 03:50:00,
2013-11-18 21:55:00,39.3,28.5,30.24,NNW,338,0.0,0.0,65,0.00,CLR,,0.00,WeatherDisplay:10.37,2013-11-19 03:55:00,
2013-11-18 22:00:00,39.4,29.3,30.24,NNW,338,0.0,0.0,67,0.00,CLR,,0.00,WeatherDisplay:10.37,2013-11-19 04:00:00,
2013-11-18 22:05:00,39.5,29.8,30.24,NNW,338,0.0,0.0,68,0.00,CLR,,0.00,WeatherDisplay:10.37,2013-11-19 04:05:00,
2013-11-18 22:07:00,39.5,30.2,30.24,NNW,338,0.0,0.0,69,0.00,CLR,,0.00,WeatherDisplay:10.37,2013-11-19 04:07:00,
2013-11-18 22:12:00,39.4,29.7,30.24,NNW,338,0.0,0.0,68,0.00,CLR,,0.00,WeatherDisplay:10.37,2013-11-19 04:12:00,
2013-11-18 22:17:00,39.3,30.3,30.24,NNW,338,0.0,0.0,70,0.00,CLR,,0.00,WeatherDisplay:10.37,2013-11-19 04:17:00,
2013-11-18 22:22:00,39.2,30.6,30.24,NNW,338,0.0,0.0,71,0.00,CLR,,0.00,WeatherDisplay:10.37,2013-11-19 04:22:00,
2013-11-18 22:27:00,39.0,29.3,30.24,NNW,338,0.0,0.0,68,0.00,CLR,,0.00,WeatherDisplay:10.37,2013-11-19 04:27:00,
2013-11-18 22:32:00,39.3,28.9,30.24,NNW,338,0.0,0.0,66,0.00,CLR,,0.00,WeatherDisplay:10.37,2013-11-19 04:32:00,
2013-11-18 22:37:00,39.6,28.4,30.24,NNW,338,0.0,0.0,64,0.00,CLR,,0.00,WeatherDisplay:10.37,2013-11-19 04:37:00,
2013-11-18 22:42:00,39.8,29.4,30.24,NNW,338,0.0,0.0,66,0.00,CLR,,0.00,WeatherDisplay:10.37,2013-11-19 04:42:00,
2013-11-18 22:47:00,39.7,29.6,30.24,NNW,338,0.0,0.0,67,0.00,CLR,,0.00,WeatherDisplay:10.37,2013-11-19 04:47:00,
2013-11-18 22:52:00,39.6,29.5,30.24,NNW,338,0.0,0.0,67,0.00,CLR,,0.00,WeatherDisplay:10.37,2013-11-19 04:52:00,
2013-11-18 22:57:00,39.5,29.8,30.24,NNW,338,0.0,0.0,68,0.00,CLR,,0.00,WeatherDisplay:10.37,2013-11-19 04:57:00,
2013-11-18 23:01:00,39.3,29.6,30.24,NNW,338,0.0,0.0,68,0.00,CLR,,0.00,WeatherDisplay:10.37,2013-11-19 05:01:00,
2013-11-18 23:02:00,39.2,29.9,30.24,NNW,338,0.0,0.0,69,0.00,CLR,,0.00,WeatherDisplay:10.37,2013-11-19 05:02:00,
2013-11-18 23:07:00,38.9,29.6,30.24,NNW,338,0.0,0.0,69,0.00,CLR,,0.00,WeatherDisplay:10.37,2013-11-19 05:07:00,
2013-11-18 23:12:00,38.8,29.8,30.24,NNW,338,0.0,0.0,70,0.00,CLR,,0.00,WeatherDisplay:10.37,2013-11-19 05:12:00,
2013-11-18 23:17:00,38.6,30.0,30.24,NNW,338,0.0,0.0,71,0.00,CLR,,0.00,WeatherDisplay:10.37,2013-11-19 05:17:00,
2013-11-18 23:22:00,38.5,29.9,30.24,NNW,338,0.0,0.0,71,0.00,CLR,,0.00,WeatherDisplay:10.37,2013-11-19 05:22:00,
2013-11-18 23:27:00,38.4,29.8,30.24,NNW,338,0.0,0.0,71,0.00,CLR,,0.00,WeatherDisplay:10.37,2013-11-19 05:27:00,
2013-11-18 23:32:00,38.3,29.7,30.24,NNW,338,0.0,0.0,71,0.00,CLR,,0.00,WeatherDisplay:10.37,2013-11-19 05:32:00,
2013-11-18 23:37:00,38.3,29.7,30.24,NNW,338,0.0,0.0,71,0.00,CLR,,0.00,WeatherDisplay:10.37,2013-11-19 05:37:00,
2013-11-18 23:42:00,38.3,29.7,30.24,NNW,338,0.0,0.0,71,0.00,CLR,,0.00,WeatherDisplay:10.37,2013-11-19 05:42:00,
2013-11-18 23:47:00,38.3,29.4,30.24,NNW,338,0.0,0.0,70,0.00,CLR,,0.00,WeatherDisplay:10.37,2013-11-19 05:47:00,
2013-11-18 23:52:00,38.4,30.5,30.24,NNW,338,0.0,0.0,73,0.00,CLR,,0.00,WeatherDisplay:10.37,2013-11-19 05:52:00,
2013-11-18 23:57:00,38.3,30.1,30.24,NNW,338,0.0,0.0,72,0.00,CLR,,0.00,WeatherDisplay:10.37,2013-11-19 05:57:00,